Terminal Aerodrome Forecast
Issued by NWS

Home | Current Version | Previous Version | Text Only | Print | Product List | Glossary On
Versions: 1 2 3 4 5 6 7 8 9 10 11 12 13 14 15 16 17
000
FTAK31 PAJN 201135
TAFAWG
TAF
PAWG 201135Z 2012/2112 00000KT P6SM FEW002
      TEMPO 2012/2016 4SM BR BKN002
     FM201600 30005KT P6SM BKN005
     FM201900 30008KT P6SM SKC
     FM210600 VRB03KT 4SM BR SKC
      AMD LTD TO CLD VIS AND WIND 2012/2015=

USA.gov is the U.S. government's official web portal to all federal, state and local government web resources and services.